Aviation Digital Data Service (ADDS)

Output produced by METARs form (1547 UTC 19 December 2014)
found at http://aviationweather.gov/adds/metars/
 
KBGR 191128Z 1912/2012 32008G14KT P6SM VCSH BKN028 
     FM191500 32009G16KT P6SM SCT035 
     FM192200 31006KT P6SM FEW040 BKN250